createdAt,value
2023-03-05T00:01:19.057Z,-1.50
2023-03-05T00:03:46.788Z,-1.40
2023-03-05T00:06:13.654Z,-1.40
2023-03-05T00:08:40.786Z,-1.40
2023-03-05T00:11:10.429Z,-1.40
2023-03-05T00:13:38.293Z,-1.40
2023-03-05T00:16:09.276Z,-1.50
2023-03-05T00:18:36.735Z,-1.40
2023-03-05T00:21:03.966Z,-1.40
2023-03-05T00:23:31.105Z,-1.50
2023-03-05T00:26:02.605Z,-1.70
2023-03-05T00:28:29.452Z,-1.80
2023-03-05T00:31:01.094Z,-1.70
2023-03-05T00:33:28.459Z,-1.60
2023-03-05T00:35:55.249Z,-1.70
2023-03-05T00:38:22.089Z,-1.80
2023-03-05T00:40:51.071Z,-1.60
2023-03-05T00:43:17.813Z,-1.60
2023-03-05T00:45:44.846Z,-1.50
2023-03-05T00:48:12.488Z,-1.50
2023-03-05T00:50:39.392Z,-1.50
2023-03-05T00:53:06.260Z,-1.50
2023-03-05T00:55:33.155Z,-1.50
2023-03-05T00:57:59.936Z,-1.50
2023-03-05T01:00:26.817Z,-1.50
2023-03-05T01:02:53.613Z,-1.50
2023-03-05T01:05:20.777Z,-1.50
2023-03-05T01:07:47.851Z,-1.60
2023-03-05T01:10:14.676Z,-1.50
2023-03-05T01:12:41.527Z,-1.50
2023-03-05T01:15:08.813Z,-1.50
2023-03-05T01:17:35.620Z,-1.50
2023-03-05T01:20:03.003Z,-1.50
2023-03-05T01:22:30.034Z,-1.40
2023-03-05T01:24:56.994Z,-1.40
2023-03-05T01:27:24.196Z,-1.40
2023-03-05T01:29:51.212Z,-1.40
2023-03-05T01:32:18.259Z,-1.30
2023-03-05T01:34:45.350Z,-1.40
2023-03-05T01:37:12.116Z,-1.30
2023-03-05T01:39:39.789Z,-1.40
2023-03-05T01:42:06.766Z,-1.40
2023-03-05T01:44:34.672Z,-1.40
2023-03-05T01:47:02.666Z,-1.40
2023-03-05T01:49:38.865Z,-1.40
2023-03-05T01:52:18.186Z,-1.40
2023-03-05T01:54:50.028Z,-1.50
2023-03-05T01:57:23.095Z,-1.50
2023-03-05T01:59:55.724Z,-1.60
2023-03-05T02:02:22.999Z,-1.50
2023-03-05T02:04:59.294Z,-1.60
2023-03-05T02:07:26.987Z,-1.60
2023-03-05T02:09:53.726Z,-1.60
2023-03-05T02:12:21.132Z,-1.60
2023-03-05T02:14:51.271Z,-1.50
2023-03-05T02:17:18.278Z,-1.60
2023-03-05T02:19:51.909Z,-1.60
2023-03-05T02:22:21.465Z,-1.60
2023-03-05T02:24:48.465Z,-1.60
2023-03-05T02:27:15.903Z,-1.70
2023-03-05T02:29:46.591Z,-1.80
2023-03-05T02:32:14.047Z,-1.80
2023-03-05T02:34:41.287Z,-1.80
2023-03-05T02:37:10.297Z,-1.80
2023-03-05T02:39:39.781Z,-1.60
2023-03-05T02:42:07.192Z,-1.60
2023-03-05T02:44:36.085Z,-1.60
2023-03-05T02:47:03.110Z,-1.60
2023-03-05T02:49:31.258Z,-1.70
2023-03-05T02:51:58.216Z,-1.70
2023-03-05T02:54:25.374Z,-1.70
2023-03-05T02:56:52.321Z,-1.70
2023-03-05T02:59:19.222Z,-1.70
2023-03-05T03:01:46.679Z,-1.70
2023-03-05T03:04:13.589Z,-1.60
2023-03-05T03:06:40.458Z,-1.70
2023-03-05T03:09:07.256Z,-1.70
2023-03-05T03:11:34.121Z,-1.70
2023-03-05T03:14:00.953Z,-1.70
2023-03-05T03:16:27.877Z,-1.70
2023-03-05T03:18:54.796Z,-1.70
2023-03-05T03:21:24.737Z,-1.70
2023-03-05T03:23:51.621Z,-1.70
2023-03-05T03:26:18.943Z,-1.60
2023-03-05T03:28:49.188Z,-1.60
2023-03-05T03:31:16.772Z,-1.60
2023-03-05T03:33:44.409Z,-1.40
2023-03-05T03:36:11.349Z,-1.40
2023-03-05T03:38:38.510Z,-1.40
2023-03-05T03:41:09.400Z,-1.40
2023-03-05T03:43:36.882Z,-1.40
2023-03-05T03:46:06.247Z,-1.50
2023-03-05T03:48:33.658Z,-1.50
2023-03-05T03:51:04.488Z,-1.60
2023-03-05T03:53:31.346Z,-1.60
2023-03-05T03:55:59.487Z,-1.60
2023-03-05T03:58:26.861Z,-1.50
2023-03-05T04:00:53.788Z,-1.60
2023-03-05T04:03:20.670Z,-1.70
2023-03-05T04:05:47.641Z,-1.70
2023-03-05T04:08:14.541Z,-1.70
2023-03-05T04:10:41.520Z,-1.70
2023-03-05T04:13:08.464Z,-1.70
2023-03-05T04:15:35.651Z,-1.70
2023-03-05T04:18:02.748Z,-1.70
2023-03-05T04:20:29.647Z,-1.70
2023-03-05T04:22:56.530Z,-1.70
2023-03-05T04:25:23.685Z,-1.70
2023-03-05T04:27:51.231Z,-1.60
2023-03-05T04:30:18.200Z,-1.70
2023-03-05T04:32:45.168Z,-1.60
2023-03-05T04:35:12.418Z,-1.60
2023-03-05T04:37:39.262Z,-1.60
2023-03-05T04:40:06.729Z,-1.60
2023-03-05T04:42:33.898Z,-1.50
2023-03-05T04:45:00.640Z,-1.50
2023-03-05T04:47:27.546Z,-1.60
2023-03-05T04:49:54.273Z,-1.60
2023-03-05T04:52:21.102Z,-1.60
2023-03-05T04:54:47.852Z,-1.60
2023-03-05T04:57:14.779Z,-1.50
2023-03-05T04:59:41.617Z,-1.50
2023-03-05T05:02:08.405Z,-1.50
2023-03-05T05:04:36.206Z,-1.50
2023-03-05T05:07:03.830Z,-1.50
2023-03-05T05:09:31.004Z,-1.50
2023-03-05T05:11:57.901Z,-1.50
2023-03-05T05:14:24.887Z,-1.50
2023-03-05T05:16:54.416Z,-1.60
2023-03-05T05:19:21.420Z,-1.60
2023-03-05T05:21:48.714Z,-1.50
2023-03-05T05:24:15.675Z,-1.50
2023-03-05T05:26:42.392Z,-1.50
2023-03-05T05:29:09.452Z,-1.50
2023-03-05T05:31:36.310Z,-1.50
2023-03-05T05:34:03.792Z,-1.50
2023-03-05T05:36:30.861Z,-1.50
2023-03-05T05:38:57.726Z,-1.50
2023-03-05T05:41:24.572Z,-1.50
2023-03-05T05:43:51.822Z,-1.50
2023-03-05T05:46:20.559Z,-1.50
2023-03-05T05:48:48.093Z,-1.50
2023-03-05T05:51:22.889Z,-1.50
2023-03-05T05:53:50.194Z,-1.50
2023-03-05T05:56:18.183Z,-1.30
2023-03-05T05:58:47.470Z,-1.40
2023-03-05T06:01:32.938Z,-1.40
2023-03-05T06:04:00.378Z,-1.40
2023-03-05T06:06:28.329Z,-1.40
2023-03-05T06:08:55.686Z,-1.40
2023-03-05T06:11:23.422Z,-1.40
2023-03-05T06:13:51.147Z,-1.40
2023-03-05T06:16:20.970Z,-1.40
2023-03-05T06:18:48.301Z,-1.40
2023-03-05T06:21:18.422Z,-1.40
2023-03-05T06:23:46.600Z,-1.40
2023-03-05T06:26:16.908Z,-1.40
2023-03-05T06:28:43.842Z,-1.50
2023-03-05T06:31:17.525Z,-1.50
2023-03-05T06:33:44.932Z,-1.40
2023-03-05T06:36:14.588Z,-1.40
2023-03-05T06:38:42.618Z,-1.30
2023-03-05T06:41:15.688Z,-1.30
2023-03-05T06:43:45.195Z,-1.30
2023-03-05T06:46:25.169Z,-1.30
2023-03-05T06:48:57.983Z,-1.30
2023-03-05T06:51:28.525Z,-1.30
2023-03-05T06:53:59.943Z,-1.30
2023-03-05T06:56:27.037Z,-1.30
2023-03-05T06:58:54.094Z,-1.30
2023-03-05T07:01:21.509Z,-1.20
2023-03-05T07:03:52.766Z,-1.20
2023-03-05T07:06:19.956Z,-1.20
2023-03-05T07:08:47.049Z,-1.20
2023-03-05T07:11:16.814Z,-1.20
2023-03-05T07:13:43.997Z,-1.10
2023-03-05T07:16:15.621Z,-1.10
2023-03-05T07:18:42.678Z,-1.20
2023-03-05T07:21:13.523Z,-1.10
2023-03-05T07:23:40.445Z,-1.20
2023-03-05T07:26:07.547Z,-1.20
2023-03-05T07:28:34.956Z,-1.10
2023-03-05T07:31:04.907Z,-1.00
2023-03-05T07:33:32.281Z,-1.00
2023-03-05T07:35:59.362Z,-0.90
2023-03-05T07:38:26.131Z,-0.90
2023-03-05T07:40:53.322Z,-0.90
2023-03-05T07:43:20.180Z,-0.80
2023-03-05T07:45:47.110Z,-0.70
2023-03-05T07:48:16.869Z,-0.70
2023-03-05T07:50:44.233Z,-0.60
2023-03-05T07:53:11.565Z,-0.60
2023-03-05T07:55:45.626Z,-0.40
2023-03-05T07:58:14.531Z,-0.40
2023-03-05T08:00:41.494Z,-0.40
2023-03-05T08:03:08.454Z,-0.40
2023-03-05T08:05:38.524Z,-0.30
2023-03-05T08:08:05.630Z,0.00
2023-03-05T08:10:33.310Z,0.50
2023-03-05T08:13:00.312Z,0.60
2023-03-05T08:15:27.506Z,0.90
2023-03-05T08:17:54.664Z,1.00
2023-03-05T08:20:21.517Z,1.40
2023-03-05T08:22:48.341Z,1.40
2023-03-05T08:25:15.217Z,1.10
2023-03-05T08:27:43.812Z,1.00
2023-03-05T08:30:22.618Z,0.80
2023-03-05T08:32:50.341Z,0.60
2023-03-05T08:35:17.210Z,0.40
2023-03-05T08:37:44.397Z,0.40
2023-03-05T08:40:12.402Z,0.40
2023-03-05T08:42:39.227Z,0.40
2023-03-05T08:45:06.778Z,0.40
2023-03-05T08:47:34.054Z,0.50
2023-03-05T08:50:01.408Z,0.50
2023-03-05T08:52:28.317Z,0.60
2023-03-05T08:54:55.258Z,0.60
2023-03-05T08:57:22.100Z,0.70
2023-03-05T08:59:48.973Z,0.70
2023-03-05T09:02:15.789Z,1.00
2023-03-05T09:04:42.543Z,1.10
2023-03-05T09:07:09.394Z,1.20
2023-03-05T09:09:36.944Z,1.20
2023-03-05T09:12:04.111Z,1.10
2023-03-05T09:14:30.946Z,1.20
2023-03-05T09:16:58.578Z,1.40
2023-03-05T09:19:25.817Z,1.40
2023-03-05T09:21:54.045Z,1.50
2023-03-05T09:24:25.155Z,1.60
2023-03-05T09:26:51.980Z,1.40
2023-03-05T09:29:18.768Z,1.40
2023-03-05T09:31:45.609Z,1.70
2023-03-05T09:34:12.610Z,1.80
2023-03-05T09:36:39.449Z,2.10
2023-03-05T09:39:07.039Z,2.20
2023-03-05T09:42:00.965Z,2.20
2023-03-05T09:45:03.963Z,2.10
2023-03-05T09:48:01.845Z,1.90
2023-03-05T09:50:33.760Z,2.10
2023-03-05T09:53:28.322Z,2.10
2023-03-05T09:55:58.871Z,2.30
2023-03-05T09:58:32.983Z,2.50
2023-03-05T10:01:14.015Z,2.80
2023-03-05T10:04:01.901Z,3.00
2023-03-05T10:06:37.555Z,3.10
2023-03-05T10:09:10.654Z,3.20
2023-03-05T10:11:56.475Z,3.40
2023-03-05T10:14:34.113Z,3.50
2023-03-05T10:17:19.808Z,3.60
2023-03-05T10:20:27.687Z,3.80
2023-03-05T10:23:29.558Z,3.90
2023-03-05T10:26:14.900Z,3.80
2023-03-05T10:29:03.789Z,4.00
2023-03-05T10:31:48.275Z,3.90
2023-03-05T10:34:27.941Z,4.10
2023-03-05T10:37:08.844Z,4.00
2023-03-05T10:39:44.586Z,3.50
2023-03-05T10:42:42.427Z,3.70
2023-03-05T10:45:14.728Z,3.50
2023-03-05T10:48:15.919Z,3.30
2023-03-05T10:50:50.751Z,3.80
2023-03-05T10:53:31.659Z,4.00
2023-03-05T10:56:02.425Z,4.10
2023-03-05T10:58:29.604Z,4.60
2023-03-05T11:00:59.803Z,5.00
2023-03-05T11:03:45.372Z,5.00
2023-03-05T11:06:13.276Z,4.90
2023-03-05T11:08:41.399Z,5.20
2023-03-05T11:11:14.249Z,5.60
2023-03-05T11:13:57.955Z,5.00
2023-03-05T11:16:26.773Z,5.30
2023-03-05T11:19:21.657Z,5.60
2023-03-05T11:22:15.121Z,5.50
2023-03-05T11:24:42.208Z,5.60
2023-03-05T11:27:38.181Z,5.10
2023-03-05T11:30:36.403Z,5.40
2023-03-05T11:33:19.338Z,5.60
2023-03-05T11:35:47.371Z,5.50
2023-03-05T11:38:26.610Z,5.70
2023-03-05T11:40:56.237Z,5.60
2023-03-05T11:43:25.655Z,5.70
2023-03-05T11:46:02.318Z,5.50
2023-03-05T11:48:35.303Z,5.70
2023-03-05T11:51:07.262Z,5.70
2023-03-05T11:53:37.166Z,5.50
2023-03-05T11:56:21.561Z,5.60
2023-03-05T11:59:01.824Z,5.20
2023-03-05T12:01:33.371Z,5.10
2023-03-05T12:04:01.045Z,4.90
2023-03-05T12:06:48.343Z,5.10
2023-03-05T12:09:50.650Z,4.90
2023-03-05T12:12:30.887Z,4.50
2023-03-05T12:15:12.827Z,4.80
2023-03-05T12:18:07.390Z,5.10
2023-03-05T12:21:01.962Z,5.10
2023-03-05T12:23:28.840Z,5.20
2023-03-05T12:25:59.298Z,5.10
2023-03-05T12:28:32.210Z,4.90
2023-03-05T12:31:00.777Z,5.00
2023-03-05T12:33:39.832Z,5.40
2023-03-05T12:36:21.851Z,5.40
2023-03-05T12:38:56.356Z,5.30
2023-03-05T12:41:23.189Z,5.40
2023-03-05T12:44:05.057Z,5.70
2023-03-05T12:46:43.239Z,5.60
2023-03-05T12:49:20.750Z,5.60
2023-03-05T12:51:49.916Z,5.10
2023-03-05T12:54:35.734Z,4.80
2023-03-05T12:57:06.668Z,4.90
2023-03-05T12:59:45.006Z,5.10
2023-03-05T13:02:26.759Z,4.90
2023-03-05T13:04:59.419Z,4.50
2023-03-05T13:07:26.345Z,4.60
2023-03-05T13:09:59.062Z,4.60
2023-03-05T13:12:28.898Z,4.90
2023-03-05T13:15:03.077Z,4.90
2023-03-05T13:17:40.662Z,4.60
2023-03-05T13:20:31.817Z,4.60
2023-03-05T13:23:24.846Z,4.50
2023-03-05T13:26:12.847Z,4.50
2023-03-05T13:28:40.036Z,4.40
2023-03-05T13:31:19.183Z,4.40
2023-03-05T13:33:54.236Z,4.40
2023-03-05T13:36:24.275Z,4.40
2023-03-05T13:38:52.443Z,4.00
2023-03-05T13:41:28.243Z,3.90
2023-03-05T13:44:00.158Z,4.00
2023-03-05T13:46:36.182Z,3.90
2023-03-05T13:49:32.991Z,3.90
2023-03-05T13:52:00.226Z,4.20
2023-03-05T13:54:28.267Z,4.50
2023-03-05T13:56:59.333Z,4.60
2023-03-05T13:59:30.745Z,4.70
2023-03-05T14:01:59.655Z,4.80
2023-03-05T14:04:30.076Z,4.90
2023-03-05T14:07:02.298Z,4.80
2023-03-05T14:09:29.171Z,5.00
2023-03-05T14:12:04.938Z,5.00
2023-03-05T14:14:37.595Z,4.90
2023-03-05T14:17:30.625Z,4.90
2023-03-05T14:20:23.431Z,5.00
2023-03-05T14:23:01.423Z,4.90
2023-03-05T14:25:42.108Z,4.70
2023-03-05T14:28:18.467Z,4.80
2023-03-05T14:30:47.540Z,4.80
2023-03-05T14:33:15.426Z,4.60
2023-03-05T14:35:49.052Z,4.60
2023-03-05T14:38:23.454Z,4.60
2023-03-05T14:40:50.717Z,4.70
2023-03-05T14:43:17.670Z,4.70
2023-03-05T14:45:45.076Z,4.60
2023-03-05T14:48:15.119Z,4.60
2023-03-05T14:50:56.456Z,4.40
2023-03-05T14:53:27.163Z,4.30
2023-03-05T14:55:56.811Z,4.10
2023-03-05T14:58:32.239Z,4.00
2023-03-05T15:00:59.795Z,3.90
2023-03-05T15:03:28.186Z,3.90
2023-03-05T15:05:57.725Z,3.90
2023-03-05T15:08:28.849Z,3.80
2023-03-05T15:10:55.994Z,3.70
2023-03-05T15:13:23.021Z,3.80
2023-03-05T15:15:51.355Z,3.90
2023-03-05T15:18:19.988Z,3.80
2023-03-05T15:20:48.901Z,3.90
2023-03-05T15:23:16.085Z,3.80
2023-03-05T15:25:43.067Z,3.80
2023-03-05T15:28:10.115Z,3.70
2023-03-05T15:30:40.510Z,3.70
2023-03-05T15:33:10.573Z,3.50
2023-03-05T15:35:37.884Z,3.60
2023-03-05T15:38:05.048Z,3.70
2023-03-05T15:40:32.942Z,3.60
2023-03-05T15:43:01.199Z,3.50
2023-03-05T15:45:31.323Z,3.30
2023-03-05T15:47:58.690Z,3.30
2023-03-05T15:50:25.637Z,3.30
2023-03-05T15:52:52.608Z,3.30
2023-03-05T15:55:20.205Z,3.40
2023-03-05T15:57:49.441Z,3.40
2023-03-05T16:00:22.623Z,3.40
2023-03-05T16:02:50.973Z,3.30
2023-03-05T16:05:18.580Z,3.10
2023-03-05T16:07:48.688Z,3.10
2023-03-05T16:10:21.583Z,3.00
2023-03-05T16:12:53.696Z,3.00
2023-03-05T16:15:21.853Z,3.00
2023-03-05T16:17:53.304Z,3.00
2023-03-05T16:20:20.568Z,2.90
2023-03-05T16:22:47.445Z,3.00
2023-03-05T16:25:14.491Z,2.80
2023-03-05T16:27:41.289Z,2.80
2023-03-05T16:30:08.837Z,2.70
2023-03-05T16:32:37.999Z,2.60
2023-03-05T16:35:05.550Z,2.70
2023-03-05T16:37:32.548Z,2.70
2023-03-05T16:39:59.603Z,2.70
2023-03-05T16:42:26.652Z,2.60
2023-03-05T16:44:54.111Z,2.60
2023-03-05T16:47:21.130Z,2.60
2023-03-05T16:49:48.029Z,2.60
2023-03-05T16:52:19.598Z,2.50
2023-03-05T16:54:47.994Z,2.60
2023-03-05T16:57:15.482Z,2.60
2023-03-05T16:59:43.606Z,2.50
2023-03-05T17:02:13.561Z,2.40
2023-03-05T17:04:40.584Z,2.30
2023-03-05T17:07:07.692Z,2.20
2023-03-05T17:09:35.091Z,2.00
2023-03-05T17:12:02.174Z,2.00
2023-03-05T17:14:29.442Z,1.90
2023-03-05T17:16:56.404Z,1.80
2023-03-05T17:19:23.554Z,1.80
2023-03-05T17:21:52.319Z,1.70
2023-03-05T17:24:21.493Z,1.70
2023-03-05T17:26:50.036Z,1.50
2023-03-05T17:29:18.923Z,1.50
2023-03-05T17:31:46.741Z,1.40
2023-03-05T17:34:14.414Z,1.40
2023-03-05T17:36:41.253Z,1.40
2023-03-05T17:39:08.869Z,1.50
2023-03-05T17:41:35.788Z,1.50
2023-03-05T17:44:02.705Z,1.50
2023-03-05T17:46:29.691Z,1.40
2023-03-05T17:48:56.683Z,1.20
2023-03-05T17:51:23.585Z,1.20
2023-03-05T17:53:50.397Z,1.20
2023-03-05T17:56:17.537Z,1.30
2023-03-05T17:58:44.306Z,1.20
2023-03-05T18:01:11.468Z,1.10
2023-03-05T18:03:39.439Z,1.10
2023-03-05T18:06:06.456Z,1.10
2023-03-05T18:08:33.662Z,1.10
2023-03-05T18:11:00.458Z,1.10
2023-03-05T18:13:27.355Z,1.10
2023-03-05T18:15:57.337Z,1.10
2023-03-05T18:18:24.076Z,1.20
2023-03-05T18:20:50.827Z,1.20
2023-03-05T18:23:17.709Z,1.20
2023-03-05T18:25:44.619Z,1.10
2023-03-05T18:28:13.254Z,1.10
2023-03-05T18:30:41.833Z,1.10
2023-03-05T18:33:15.508Z,1.10
2023-03-05T18:35:42.357Z,1.00
2023-03-05T18:38:09.255Z,1.00
2023-03-05T18:40:36.544Z,1.00
2023-03-05T18:43:03.894Z,1.00
2023-03-05T18:45:32.316Z,2.30
2023-03-05T18:47:59.108Z,1.00
2023-03-05T18:50:27.566Z,1.00
2023-03-05T18:52:54.478Z,1.10
2023-03-05T18:55:25.693Z,1.10
2023-03-05T18:57:53.166Z,1.10
2023-03-05T19:00:25.910Z,1.10
2023-03-05T19:02:53.354Z,1.10
2023-03-05T19:05:21.233Z,1.10
2023-03-05T19:07:48.686Z,1.10
2023-03-05T19:10:17.620Z,1.10
2023-03-05T19:13:05.636Z,1.10
2023-03-05T19:15:32.969Z,1.00
2023-03-05T19:17:59.836Z,1.00
2023-03-05T19:20:26.730Z,1.00
2023-03-05T19:22:55.697Z,1.00
2023-03-05T19:25:22.719Z,1.00
2023-03-05T19:27:49.946Z,1.00
2023-03-05T19:30:17.466Z,1.00
2023-03-05T19:32:47.125Z,1.00
2023-03-05T19:35:16.154Z,0.90
2023-03-05T19:37:45.877Z,0.90
2023-03-05T19:40:14.043Z,1.00
2023-03-05T19:42:41.368Z,1.00
2023-03-05T19:45:08.932Z,1.00
2023-03-05T19:47:35.764Z,0.90
2023-03-05T19:50:02.989Z,1.00
2023-03-05T19:52:29.849Z,0.90
2023-03-05T19:54:56.709Z,1.00
2023-03-05T19:57:23.521Z,0.90
2023-03-05T19:59:53.669Z,0.90
2023-03-05T20:02:21.938Z,0.90
2023-03-05T20:04:49.573Z,0.90
2023-03-05T20:07:16.829Z,0.90
2023-03-05T20:09:43.709Z,0.90
2023-03-05T20:12:11.229Z,0.90
2023-03-05T20:14:38.201Z,0.90
2023-03-05T20:17:05.243Z,0.90
2023-03-05T20:19:32.182Z,0.90
2023-03-05T20:21:59.338Z,0.90
2023-03-05T20:24:26.147Z,0.90
2023-03-05T20:26:52.911Z,0.90
2023-03-05T20:29:19.769Z,0.80
2023-03-05T20:31:47.754Z,0.80
2023-03-05T20:34:16.801Z,0.80
2023-03-05T20:36:44.312Z,0.80
2023-03-05T20:39:11.319Z,0.80
2023-03-05T20:41:40.127Z,0.70
2023-03-05T20:44:08.110Z,0.80
2023-03-05T20:46:41.833Z,0.70
2023-03-05T20:49:09.747Z,0.70
2023-03-05T20:51:38.314Z,0.70
2023-03-05T20:54:08.864Z,0.70
2023-03-05T20:56:36.010Z,0.70
2023-03-05T20:59:04.989Z,0.70
2023-03-05T21:01:34.229Z,0.70
2023-03-05T21:04:01.616Z,0.70
2023-03-05T21:06:29.637Z,0.70
2023-03-05T21:08:57.710Z,0.80
2023-03-05T21:11:24.896Z,0.80
2023-03-05T21:13:51.826Z,0.70
2023-03-05T21:16:22.776Z,0.80
2023-03-05T21:18:50.783Z,0.80
2023-03-05T21:21:17.998Z,0.80
2023-03-05T21:23:46.124Z,0.80
2023-03-05T21:26:13.571Z,0.70
2023-03-05T21:28:41.204Z,0.70
2023-03-05T21:31:10.718Z,0.60
2023-03-05T21:33:38.062Z,0.60
2023-03-05T21:36:05.273Z,0.60
2023-03-05T21:38:34.106Z,0.60
2023-03-05T21:41:02.364Z,0.60
2023-03-05T21:43:31.130Z,0.70
2023-03-05T21:46:00.286Z,0.60
2023-03-05T21:48:27.325Z,0.60
2023-03-05T21:50:55.320Z,0.70
2023-03-05T21:53:22.889Z,0.60
2023-03-05T21:56:00.016Z,0.60
2023-03-05T21:58:26.890Z,0.70
2023-03-05T22:00:53.693Z,0.70
2023-03-05T22:03:20.546Z,0.70
2023-03-05T22:05:47.374Z,0.60
2023-03-05T22:08:14.583Z,0.60
2023-03-05T22:10:41.847Z,0.60
2023-03-05T22:13:12.802Z,0.50
2023-03-05T22:15:49.334Z,0.60
2023-03-05T22:18:21.517Z,0.60
2023-03-05T22:20:49.120Z,0.60
2023-03-05T22:23:16.905Z,0.60
2023-03-05T22:25:44.122Z,0.50
2023-03-05T22:28:12.891Z,0.50
2023-03-05T22:30:46.459Z,0.50
2023-03-05T22:33:13.844Z,0.50
2023-03-05T22:35:41.974Z,0.40
2023-03-05T22:38:09.925Z,0.30
2023-03-05T22:40:40.587Z,0.20
2023-03-05T22:43:07.476Z,0.20
2023-03-05T22:45:34.538Z,0.10
2023-03-05T22:48:01.583Z,0.00
2023-03-05T22:50:28.523Z,-0.10
2023-03-05T22:52:55.861Z,-0.10
2023-03-05T22:55:22.624Z,-0.10
2023-03-05T22:57:49.742Z,-0.10
2023-03-05T23:00:23.631Z,0.00
2023-03-05T23:02:51.820Z,0.00
2023-03-05T23:05:19.686Z,-0.10
2023-03-05T23:07:46.851Z,0.00
2023-03-05T23:10:20.594Z,-0.10
2023-03-05T23:12:50.657Z,-0.10
2023-03-05T23:15:21.376Z,-0.10
2023-03-05T23:17:48.404Z,-0.10
2023-03-05T23:20:17.282Z,-0.20
2023-03-05T23:22:45.240Z,-0.10
2023-03-05T23:25:14.141Z,-0.10
2023-03-05T23:27:41.401Z,-0.10
2023-03-05T23:30:24.324Z,-0.10
2023-03-05T23:32:53.848Z,-0.20
2023-03-05T23:35:34.927Z,-0.20
2023-03-05T23:38:03.605Z,-0.20
2023-03-05T23:40:37.139Z,-0.10
2023-03-05T23:43:04.736Z,-0.10
2023-03-05T23:45:31.780Z,-0.10
2023-03-05T23:47:58.922Z,-0.20
2023-03-05T23:50:33.598Z,-0.20
2023-03-05T23:53:02.146Z,-0.20
2023-03-05T23:55:49.804Z,-0.10
2023-03-05T23:58:17.286Z,-0.20
